Time;durP1;ratioP1;P1;durP2;ratioP2;P2;SDS_P1;SDS_P2;PMS_P1;PMS_P2;Temp;Humidity;BMP_temperature;BMP_pressure;BME280_temperature;BME280_humidity;BME280_pressure;Samples;Min_cycle;Max_cycle;Signal;HPM_P1;HPM_P2
2022/04/12 00:00:59;;;;;;;0.70;0.70;;;5.50;1.00;;;;;;5055328;28;20726;-78
2022/04/12 00:03:24;;;;;;;0.70;0.70;;;5.70;1.00;;;;;;5055852;28;20185;-78
2022/04/12 00:05:51;;;;;;;0.70;0.70;;;5.60;1.00;;;;;;5056517;28;20209;-78
2022/04/12 00:08:17;;;;;;;0.70;0.70;;;5.60;1.00;;;;;;5058191;28;20175;-79
2022/04/12 00:10:43;;;;;;;0.70;0.70;;;5.60;1.00;;;;;;5058925;28;20226;-78
2022/04/12 00:13:08;;;;;;;0.70;0.70;;;5.60;1.00;;;;;;5057358;28;20175;-78
2022/04/12 00:15:34;;;;;;;0.80;0.80;;;5.60;1.00;;;;;;5055520;28;20709;-78
2022/04/12 00:20:44;;;;;;;0.70;0.70;;;5.30;1.00;;;;;;5053608;28;20710;-78
2022/04/12 00:23:14;;;;;;;0.60;0.60;;;5.20;1.00;;;;;;5054600;28;20187;-78
2022/04/12 00:25:43;;;;;;;0.70;0.70;;;5.30;1.00;;;;;;5055272;28;20648;-78
2022/04/12 00:28:08;;;;;;;0.80;0.80;;;5.30;1.00;;;;;;5055933;28;20297;-78
2022/04/12 00:30:34;;;;;;;0.70;0.70;;;5.20;1.00;;;;;;5054965;28;20672;-77
2022/04/12 00:33:00;;;;;;;0.70;0.70;;;5.20;1.00;;;;;;5055171;28;20179;-79
2022/04/12 00:35:26;;;;;;;0.70;0.70;;;5.20;1.00;;;;;;5055130;28;20183;-79
2022/04/12 00:37:52;;;;;;;0.70;0.70;;;5.10;1.00;;;;;;5054612;28;20175;-79
2022/04/12 00:40:19;;;;;;;0.70;0.70;;;4.80;1.00;;;;;;5053372;28;20277;-79
2022/04/12 00:42:46;;;;;;;0.80;0.80;;;4.70;17.10;;;;;;5053475;28;20274;-79
2022/04/12 00:45:12;;;;;;;0.70;0.70;;;4.80;26.40;;;;;;5053030;28;20183;-79
2022/04/12 00:47:39;;;;;;;0.70;0.70;;;4.90;1.00;;;;;;5052842;28;20183;-77
2022/04/12 00:50:06;;;;;;;0.70;0.70;;;5.00;1.00;;;;;;5073202;28;20251;-79
2022/04/12 00:52:36;;;;;;;0.80;0.80;;;5.00;1.00;;;;;;5072978;28;20182;-78
2022/04/12 00:55:03;;;;;;;0.70;0.70;;;4.90;1.00;;;;;;5073163;28;20187;-79
2022/04/12 00:57:30;;;;;;;0.70;0.70;;;4.80;10.90;;;;;;5083693;28;20191;-77
2022/04/12 00:59:56;;;;;;;0.70;0.70;;;5.00;5.80;;;;;;5075571;28;20189;-78
2022/04/12 01:02:22;;;;;;;0.70;0.70;;;4.90;1.00;;;;;;5096094;28;20189;-79
2022/04/12 01:04:48;;;;;;;0.70;0.70;;;4.90;1.00;;;;;;5075685;28;20179;-80
2022/04/12 01:07:14;;;;;;;0.70;0.70;;;4.80;1.00;;;;;;5075539;28;20182;-80
2022/04/12 01:09:39;;;;;;;0.80;0.80;;;4.80;5.30;;;;;;5074760;28;20590;-78
2022/04/12 01:12:09;;;;;;;0.70;0.70;;;4.70;8.90;;;;;;5073495;28;20247;-80
2022/04/12 01:14:35;;;;;;;0.80;0.80;;;4.80;6.20;;;;;;5073641;28;20179;-78
2022/04/12 01:17:06;;;;;;;0.70;0.70;;;4.70;6.20;;;;;;5073190;28;20171;-80
2022/04/12 01:19:32;;;;;;;0.80;0.80;;;4.70;28.10;;;;;;5076132;28;20182;-79
2022/04/12 01:22:21;;;;;;;0.70;0.70;;;4.70;14.90;;;;;;5073941;28;20297;-80
2022/04/12 01:24:47;;;;;;;0.70;0.70;;;4.70;1.00;;;;;;5074092;28;20546;-78
2022/04/12 01:27:12;;;;;;;0.80;0.80;;;4.60;6.30;;;;;;5074947;28;20643;-80
2022/04/12 01:29:38;;;;;;;0.70;0.70;;;4.60;1.00;;;;;;5075152;28;20730;-78
2022/04/12 01:32:07;;;;;;;0.70;0.70;;;4.60;10.60;;;;;;5075317;28;20190;-80
2022/04/12 01:34:34;;;;;;;0.90;0.90;;;4.60;27.00;;;;;;5075102;28;20182;-79
2022/04/12 01:37:01;;;;;;;0.80;0.80;;;4.60;9.10;;;;;;5074237;28;20193;-77
2022/04/12 01:39:27;;;;;;;0.67;0.67;;;4.50;3.80;;;;;;5073967;28;20179;-78
2022/04/12 01:41:52;;;;;;;0.70;0.70;;;4.40;1.00;;;;;;5074146;28;20309;-78
2022/04/12 01:44:18;;;;;;;0.80;0.80;;;4.40;4.30;;;;;;5072434;28;20614;-79
2022/04/12 01:46:43;;;;;;;0.80;0.80;;;4.40;17.10;;;;;;5073166;28;20171;-78
2022/04/12 01:49:09;;;;;;;0.70;0.70;;;4.30;18.50;;;;;;5064548;28;20175;-77
2022/04/12 01:51:34;;;;;;;0.70;0.70;;;4.30;38.40;;;;;;5053083;28;20202;-78
2022/04/12 01:54:00;;;;;;;0.70;0.70;;;4.30;22.10;;;;;;5053695;28;20233;-77
2022/04/12 01:56:25;;;;;;;0.80;0.80;;;4.20;45.40;;;;;;5053145;28;20285;-80
2022/04/12 01:58:51;;;;;;;0.70;0.70;;;4.20;45.30;;;;;;5052790;28;20254;-79
2022/04/12 02:01:16;;;;;;;0.80;0.80;;;4.20;58.70;;;;;;5053700;28;20221;-79
2022/04/12 02:03:42;;;;;;;0.70;0.70;;;4.10;52.40;;;;;;5053363;28;20167;-79
2022/04/12 02:06:07;;;;;;;0.73;0.73;;;4.10;45.00;;;;;;5053899;28;20237;-81
2022/04/12 02:08:35;;;;;;;0.60;0.60;;;4.10;62.60;;;;;;5053579;28;20221;-80
2022/04/12 02:11:00;;;;;;;0.80;0.80;;;4.10;64.90;;;;;;5053873;28;20198;-80
2022/04/12 02:13:26;;;;;;;0.80;0.80;;;4.10;63.10;;;;;;5056497;28;20658;-79
2022/04/12 02:15:51;;;;;;;0.80;0.80;;;4.10;93.80;;;;;;5057153;28;20187;-79
2022/04/12 02:18:18;;;;;;;0.67;0.67;;;4.10;66.10;;;;;;5054567;28;20211;-77
2022/04/12 02:20:44;;;;;;;0.77;0.77;;;4.00;76.20;;;;;;5056980;28;20213;-77
2022/04/12 02:23:09;;;;;;;0.70;0.70;;;4.00;92.90;;;;;;5056170;28;20175;-80
2022/04/12 02:25:35;;;;;;;0.80;0.80;;;4.00;64.90;;;;;;5054203;28;20281;-84
2022/04/12 02:28:00;;;;;;;0.80;0.80;;;4.00;34.70;;;;;;5054699;28;20187;-79
2022/04/12 02:30:26;;;;;;;0.80;0.80;;;4.00;33.50;;;;;;5036110;28;20297;-79
2022/04/12 02:32:51;;;;;;;0.70;0.70;;;3.90;27.40;;;;;;5054034;28;20179;-83
2022/04/12 02:35:17;;;;;;;0.80;0.80;;;3.90;52.40;;;;;;5054894;28;20178;-80
2022/04/12 02:37:42;;;;;;;0.90;0.90;;;3.90;49.20;;;;;;5054088;28;20238;-80
2022/04/12 02:40:08;;;;;;;0.70;0.70;;;3.80;46.20;;;;;;5054090;28;20199;-85
2022/04/12 02:42:33;;;;;;;0.80;0.80;;;3.80;55.10;;;;;;5054454;28;20408;-79
2022/04/12 02:44:59;;;;;;;0.70;0.70;;;3.80;65.30;;;;;;5054883;28;20179;-79
2022/04/12 02:47:26;;;;;;;0.70;0.70;;;3.70;59.60;;;;;;5054584;28;20179;-80
2022/04/12 02:49:53;;;;;;;0.80;0.80;;;3.60;73.00;;;;;;5068027;28;20201;-80
2022/04/12 02:52:18;;;;;;;0.90;0.90;;;3.60;60.30;;;;;;5074465;28;20186;-78
2022/04/12 02:54:44;;;;;;;0.80;0.80;;;3.50;91.10;;;;;;5074187;28;20228;-78
2022/04/12 02:57:10;;;;;;;0.80;0.80;;;3.50;99.90;;;;;;5073594;28;20205;-80
2022/04/12 02:59:35;;;;;;;0.73;0.73;;;3.40;99.90;;;;;;5072731;28;20171;-79
2022/04/12 03:02:01;;;;;;;0.70;0.70;;;3.40;99.90;;;;;;5050038;28;20221;-78
2022/04/12 03:04:28;;;;;;;0.67;0.67;;;3.40;99.90;;;;;;5052344;28;20290;-81
2022/04/12 03:06:53;;;;;;;0.80;0.80;;;3.40;99.90;;;;;;5052775;28;20210;-78
2022/04/12 03:09:19;;;;;;;0.77;0.77;;;3.30;99.90;;;;;;5052168;28;20179;-79
2022/04/12 03:11:45;;;;;;;0.80;0.80;;;3.50;99.90;;;;;;5052771;28;20619;-81
2022/04/12 03:14:10;;;;;;;0.80;0.80;;;3.60;99.90;;;;;;5055311;28;20261;-78
2022/04/12 03:16:36;;;;;;;0.80;0.80;;;3.60;99.90;;;;;;5057982;28;20172;-78
2022/04/12 03:19:02;;;;;;;0.80;0.80;;;3.60;99.90;;;;;;5057525;28;20171;-79
2022/04/12 03:21:27;;;;;;;0.80;0.80;;;3.50;99.90;;;;;;5057939;28;20624;-80
2022/04/12 03:23:53;;;;;;;0.80;0.80;;;3.60;96.40;;;;;;5058177;28;20663;-79
2022/04/12 03:26:18;;;;;;;0.70;0.70;;;3.50;99.90;;;;;;5057778;28;20194;-80
2022/04/12 03:28:44;;;;;;;0.90;0.90;;;3.50;99.90;;;;;;5056557;28;20178;-80
2022/04/12 03:31:10;;;;;;;0.80;0.80;;;3.50;99.90;;;;;;5056301;28;20215;-80
2022/04/12 03:33:35;;;;;;;0.80;0.80;;;3.40;99.90;;;;;;5058154;28;20195;-78
2022/04/12 03:36:00;;;;;;;0.80;0.80;;;3.40;99.90;;;;;;5058310;28;20187;-82
2022/04/12 03:38:26;;;;;;;0.87;0.87;;;3.20;99.90;;;;;;5058261;28;20178;-79
2022/04/12 03:40:52;;;;;;;0.90;0.90;;;3.20;99.90;;;;;;5050624;28;20590;-78
2022/04/12 03:43:18;;;;;;;0.80;0.80;;;3.20;99.90;;;;;;5052499;28;20176;-80
2022/04/12 03:45:43;;;;;;;0.87;0.87;;;3.10;99.90;;;;;;5056035;28;20171;-80
2022/04/12 03:48:09;;;;;;;0.70;0.70;;;3.00;99.90;;;;;;5055933;28;20456;-77
2022/04/12 03:50:34;;;;;;;0.80;0.80;;;3.00;99.90;;;;;;5056721;28;20195;-79
2022/04/12 03:53:01;;;;;;;0.80;0.80;;;3.00;99.90;;;;;;5057772;28;20266;-79
2022/04/12 03:58:09;;;;;;;0.70;0.70;;;2.90;99.90;;;;;;5026373;28;20208;-78
2022/04/12 04:00:35;;;;;;;0.80;0.80;;;3.00;99.90;;;;;;5023854;28;20213;-79
2022/04/12 04:03:01;;;;;;;0.80;0.80;;;3.00;99.90;;;;;;5035596;28;20190;-80
2022/04/12 04:05:27;;;;;;;0.87;0.87;;;2.90;99.90;;;;;;5020532;28;20267;-79
2022/04/12 04:07:53;;;;;;;0.90;0.90;;;2.80;99.90;;;;;;5015984;28;20181;-79
2022/04/12 04:10:19;;;;;;;0.80;0.80;;;3.20;99.90;;;;;;5018607;28;20254;-78
2022/04/12 04:12:46;;;;;;;0.90;0.90;;;2.90;99.90;;;;;;5031361;28;20168;-78
2022/04/12 04:15:12;;;;;;;0.80;0.80;;;2.90;99.90;;;;;;5013956;28;20272;-78
2022/04/12 04:17:42;;;;;;;0.80;0.80;;;2.90;99.90;;;;;;5014297;28;20431;-77
2022/04/12 04:20:08;;;;;;;0.80;0.80;;;3.20;99.90;;;;;;5013571;28;20204;-79
2022/04/12 04:22:34;;;;;;;0.73;0.73;;;3.00;99.90;;;;;;5014114;28;20183;-78
2022/04/12 04:25:00;;;;;;;0.80;0.80;;;2.90;99.90;;;;;;5013330;28;20173;-78
2022/04/12 04:27:28;;;;;;;0.80;0.80;;;2.90;99.90;;;;;;5014091;28;20173;-78
2022/04/12 04:29:55;;;;;;;0.80;0.80;;;2.90;99.90;;;;;;5013829;28;20179;-78
2022/04/12 04:32:21;;;;;;;0.90;0.90;;;3.00;99.90;;;;;;5013905;28;20181;-78
2022/04/12 04:34:47;;;;;;;0.80;0.80;;;3.00;99.90;;;;;;5026719;28;20176;-79
2022/04/12 04:37:13;;;;;;;0.80;0.80;;;2.80;99.90;;;;;;5019281;28;20481;-78
2022/04/12 04:39:38;;;;;;;0.90;0.90;;;2.80;99.90;;;;;;5024044;28;20302;-78
2022/04/12 04:42:05;;;;;;;0.90;0.90;;;2.70;99.90;;;;;;5030120;28;20218;-79
2022/04/12 04:44:31;;;;;;;0.80;0.80;;;2.70;99.90;;;;;;5031370;28;20180;-79
2022/04/12 04:46:57;;;;;;;0.90;0.90;;;2.70;99.90;;;;;;5033714;28;20176;-78
2022/04/12 04:49:23;;;;;;;0.80;0.80;;;2.70;99.90;;;;;;5023640;28;20198;-78
2022/04/12 04:51:48;;;;;;;0.90;0.90;;;2.70;99.90;;;;;;5012932;28;20307;-78
2022/04/12 04:54:14;;;;;;;0.90;0.90;;;2.80;99.90;;;;;;5013323;28;20187;-79
2022/04/12 04:56:40;;;;;;;0.90;0.90;;;2.80;99.90;;;;;;5013461;28;20207;-77
2022/04/12 04:59:05;;;;;;;0.80;0.80;;;2.80;99.90;;;;;;5012958;28;20176;-79
2022/04/12 05:01:31;;;;;;;0.70;0.70;;;2.80;99.90;;;;;;5013164;28;20693;-79
2022/04/12 05:03:56;;;;;;;1.00;1.00;;;2.80;99.90;;;;;;5013061;28;20181;-78
2022/04/12 05:06:22;;;;;;;0.80;0.80;;;2.90;99.90;;;;;;5012994;28;20168;-79
2022/04/12 05:08:47;;;;;;;0.80;0.80;;;2.90;99.90;;;;;;5012793;28;20612;-78
2022/04/12 05:11:13;;;;;;;0.70;0.70;;;3.00;99.90;;;;;;5013292;28;20200;-79
2022/04/12 05:13:38;;;;;;;0.80;0.80;;;3.00;99.90;;;;;;5013428;28;20256;-78
2022/04/12 05:16:04;;;;;;;0.90;0.90;;;3.00;99.90;;;;;;5013646;28;20173;-78
2022/04/12 05:18:30;;;;;;;0.80;0.80;;;3.20;99.90;;;;;;5012884;28;20172;-79
2022/04/12 05:20:56;;;;;;;0.87;0.87;;;3.10;99.90;;;;;;5012487;28;20292;-78
2022/04/12 05:23:22;;;;;;;0.90;0.90;;;3.20;99.90;;;;;;5012734;28;20219;-79
2022/04/12 05:25:48;;;;;;;0.90;0.90;;;3.30;99.90;;;;;;5012843;28;20195;-80
2022/04/12 05:28:13;;;;;;;0.80;0.80;;;3.50;99.90;;;;;;5013673;28;20185;-82
2022/04/12 05:30:39;;;;;;;0.80;0.80;;;3.60;99.90;;;;;;5013032;28;20208;-78
2022/04/12 05:33:04;;;;;;;0.90;0.90;;;3.80;99.90;;;;;;5013808;28;20181;-77
2022/04/12 05:35:30;;;;;;;0.80;0.80;;;3.80;50.10;;;;;;5032469;28;20187;-78
2022/04/12 05:37:56;;;;;;;0.80;0.80;;;4.40;1.00;;;;;;5028703;28;20711;-81
2022/04/12 05:40:22;;;;;;;0.90;0.90;;;4.80;1.00;;;;;;5027405;28;20212;-79
2022/04/12 05:42:48;;;;;;;0.80;0.80;;;5.20;1.00;;;;;;5020583;28;20173;-79
2022/04/12 05:45:15;;;;;;;0.83;0.83;;;5.80;1.00;;;;;;5012629;28;20218;-77
2022/04/12 05:47:49;;;;;;;0.70;0.70;;;5.50;1.00;;;;;;5013137;28;20595;-79
2022/04/12 05:50:16;;;;;;;0.60;0.60;;;5.40;1.00;;;;;;5028207;28;20687;-78
2022/04/12 05:52:42;;;;;;;0.70;0.70;;;5.50;1.00;;;;;;5012861;28;20176;-78
2022/04/12 05:55:09;;;;;;;0.70;0.70;;;5.50;1.00;;;;;;5030271;28;20176;-79
2022/04/12 05:57:59;;;;;;;0.80;0.80;;;5.10;1.00;;;;;;5030663;28;20270;-78
2022/04/12 06:00:26;;;;;;;0.70;0.70;;;5.50;1.00;;;;;;5029475;28;20210;-78
2022/04/12 06:02:53;;;;;;;0.70;0.70;;;5.80;1.00;;;;;;5031170;28;20185;-77
2022/04/12 06:05:20;;;;;;;0.70;0.70;;;5.90;1.00;;;;;;5032250;28;20176;-78
2022/04/12 06:07:46;;;;;;;0.60;0.60;;;5.80;1.00;;;;;;5032406;28;20285;-78
2022/04/12 06:10:13;;;;;;;0.70;0.70;;;5.50;1.00;;;;;;5031777;28;20241;-77
2022/04/12 06:12:39;;;;;;;0.70;0.70;;;5.80;1.00;;;;;;5032099;28;20233;-75
2022/04/12 06:15:06;;;;;;;0.70;0.70;;;6.20;1.00;;;;;;5034303;28;20262;-77
2022/04/12 06:17:34;;;;;;;0.70;0.70;;;6.50;99.90;;;;;;5032861;28;20261;-77
2022/04/12 06:20:09;;;;;;;0.63;0.63;;;6.90;1.00;;;;;;5031448;28;20203;-79
2022/04/12 06:22:35;;;;;;;0.70;0.70;;;7.40;1.00;;;;;;5033061;28;20659;-77
2022/04/12 06:25:01;;;;;;;0.67;0.67;;;7.70;1.00;;;;;;5031743;28;20370;-75
2022/04/12 06:27:34;;;;;;;0.60;0.60;;;8.40;1.00;;;;;;5031176;28;20214;-77
2022/04/12 06:30:14;;;;;;;0.60;0.60;;;7.90;70.50;;;;;;5031954;28;20191;-78
2022/04/12 06:32:40;;;;;;;0.63;0.63;;;8.00;12.60;;;;;;5032950;28;20171;-77
2022/04/12 06:35:09;;;;;;;0.60;0.60;;;7.60;1.00;;;;;;5032438;28;20199;-79
2022/04/12 06:37:35;;;;;;;0.60;0.60;;;7.90;1.00;;;;;;5031945;28;20529;-79
2022/04/12 06:40:01;;;;;;;0.60;0.60;;;7.90;99.90;;;;;;5013304;28;20204;-78
2022/04/12 06:42:27;;;;;;;0.60;0.60;;;8.10;99.90;;;;;;5032493;28;20180;-78
2022/04/12 06:44:53;;;;;;;0.60;0.60;;;8.20;1.00;;;;;;5032418;28;20222;-78
2022/04/12 06:47:19;;;;;;;0.70;0.70;;;8.40;99.90;;;;;;5032710;28;20180;-78
2022/04/12 06:49:49;;;;;;;0.80;0.80;;;8.60;99.90;;;;;;5035488;28;20582;-78
2022/04/12 06:52:17;;;;;;;0.70;0.70;;;8.80;99.90;;;;;;5035508;28;20180;-77
2022/04/12 06:54:43;;;;;;;0.60;0.60;;;9.30;99.90;;;;;;5035997;28;20583;-78
2022/04/12 06:57:09;;;;;;;0.70;0.70;;;10.00;99.90;;;;;;5037552;28;20188;-80
2022/04/12 06:59:35;;;;;;;0.63;0.63;;;10.50;99.90;;;;;;5034413;28;20184;-80
2022/04/12 07:02:01;;;;;;;0.50;0.50;;;10.60;1.00;;;;;;5037845;28;20261;-77
2022/04/12 07:04:28;;;;;;;0.50;0.50;;;9.70;99.90;;;;;;5037641;28;20554;-78
2022/04/12 07:06:53;;;;;;;0.60;0.60;;;9.50;99.90;;;;;;5037054;28;20258;-80
2022/04/12 07:09:20;;;;;;;0.60;0.60;;;9.40;1.00;;;;;;5037140;28;20200;-78
2022/04/12 07:11:49;;;;;;;0.60;0.60;;;9.60;1.00;;;;;;5037410;28;20230;-80
2022/04/12 07:14:15;;;;;;;0.60;0.60;;;9.70;99.90;;;;;;5038124;28;20184;-78
2022/04/12 07:16:41;;;;;;;0.50;0.50;;;9.90;99.90;;;;;;5038162;28;20183;-79
2022/04/12 07:19:06;;;;;;;0.50;0.50;;;10.50;1.00;;;;;;5037939;28;20198;-78
2022/04/12 07:21:32;;;;;;;0.50;0.50;;;11.20;1.00;;;;;;5037644;28;20227;-79
2022/04/12 07:23:59;;;;;;;0.50;0.50;;;12.10;1.00;;;;;;5037664;28;20258;-79
2022/04/12 07:26:27;;;;;;;0.40;0.40;;;12.30;1.00;;;;;;5037403;28;20176;-80
2022/04/12 07:28:53;;;;;;;0.40;0.40;;;12.80;1.00;;;;;;5037098;28;20176;-79
2022/04/12 07:31:19;;;;;;;0.40;0.40;;;13.00;1.00;;;;;;5037263;28;20195;-77
2022/04/12 07:33:44;;;;;;;0.40;0.40;;;13.40;1.00;;;;;;5036679;28;20655;-77
2022/04/12 07:36:10;;;;;;;0.40;0.40;;;13.00;1.00;;;;;;5036563;28;20179;-76
2022/04/12 07:38:36;;;;;;;0.50;0.50;;;12.30;1.00;;;;;;5036589;28;20179;-79
2022/04/12 07:41:01;;;;;;;0.40;0.40;;;12.20;1.00;;;;;;5035018;28;20278;-76
2022/04/12 07:43:27;;;;;;;0.40;0.40;;;12.50;1.00;;;;;;5035991;28;20270;-79
2022/04/12 07:45:52;;;;;;;0.40;0.40;;;12.80;1.00;;;;;;5036398;28;20202;-78
2022/04/12 07:48:18;;;;;;;0.40;0.40;;;13.20;1.00;;;;;;5037166;28;20269;-79
2022/04/12 07:50:43;;;;;;;0.40;0.40;;;13.80;1.00;;;;;;5036937;28;20188;-79
2022/04/12 07:53:09;;;;;;;0.50;0.50;;;13.70;1.00;;;;;;5038044;28;20701;-78
2022/04/12 07:55:34;;;;;;;0.40;0.40;;;13.50;1.00;;;;;;5037208;28;20168;-79
2022/04/12 07:58:00;;;;;;;0.50;0.50;;;13.60;1.00;;;;;;5037040;28;20183;-78
2022/04/12 08:00:25;;;;;;;0.40;0.40;;;13.80;1.00;;;;;;5034060;28;20680;-80
2022/04/12 08:02:51;;;;;;;0.40;0.40;;;14.00;1.00;;;;;;5034603;28;20172;-77
2022/04/12 08:05:17;;;;;;;0.40;0.40;;;14.10;1.00;;;;;;5035717;28;20195;-79
2022/04/12 08:07:48;;;;;;;0.50;0.50;;;14.50;1.00;;;;;;5035055;28;20176;-77
2022/04/12 08:10:18;;;;;;;0.40;0.40;;;15.20;1.00;;;;;;5036236;28;20227;-77
2022/04/12 08:12:45;;;;;;;0.40;0.40;;;15.50;1.00;;;;;;5034929;28;20206;-79
2022/04/12 08:15:12;;;;;;;0.40;0.40;;;15.40;1.00;;;;;;5035337;28;20195;-79
2022/04/12 08:17:38;;;;;;;0.40;0.40;;;15.70;1.00;;;;;;5035441;28;20545;-80
2022/04/12 08:20:05;;;;;;;0.40;0.40;;;15.80;1.00;;;;;;5033780;28;20200;-80
2022/04/12 08:22:32;;;;;;;0.40;0.40;;;15.70;1.00;;;;;;5035021;28;20663;-79
2022/04/12 08:24:58;;;;;;;0.40;0.40;;;16.20;1.00;;;;;;5035797;28;20684;-80
2022/04/12 08:27:24;;;;;;;0.30;0.30;;;16.10;1.00;;;;;;5038008;28;20207;-78
2022/04/12 08:29:50;;;;;;;0.30;0.30;;;15.70;1.00;;;;;;5036230;28;20266;-79
2022/04/12 08:32:17;;;;;;;0.30;0.30;;;16.30;1.00;;;;;;5037043;28;20203;-78
2022/04/12 08:34:43;;;;;;;0.30;0.30;;;16.40;1.00;;;;;;5037591;28;20636;-80
2022/04/12 08:37:09;;;;;;;0.40;0.40;;;16.30;1.00;;;;;;5036296;28;20295;-79
2022/04/12 08:39:35;;;;;;;0.30;0.30;;;16.20;1.00;;;;;;5036236;28;20175;-80
2022/04/12 08:42:03;;;;;;;0.30;0.30;;;16.70;1.00;;;;;;5037913;28;20598;-80
2022/04/12 08:44:30;;;;;;;0.40;0.40;;;16.70;1.00;;;;;;5036247;28;20172;-79
2022/04/12 08:46:57;;;;;;;0.40;0.40;;;16.80;1.00;;;;;;5036111;28;20258;-78
2022/04/12 08:49:24;;;;;;;0.30;0.30;;;17.10;1.00;;;;;;5034860;28;20175;-78
2022/04/12 08:51:50;;;;;;;0.30;0.30;;;17.00;1.00;;;;;;5034558;28;20200;-79
2022/04/12 08:54:18;;;;;;;0.30;0.30;;;17.50;1.00;;;;;;5034807;28;20182;-77
2022/04/12 08:56:48;;;;;;;0.40;0.40;;;17.90;1.00;;;;;;5034095;28;20195;-76
2022/04/12 08:59:14;;;;;;;0.37;0.37;;;18.20;1.00;;;;;;5033119;28;20187;-77
2022/04/12 09:01:41;;;;;;;0.30;0.30;;;18.30;1.00;;;;;;5033037;28;20685;-77
2022/04/12 09:04:10;;;;;;;0.37;0.37;;;18.20;1.00;;;;;;5033363;28;20357;-76
2022/04/12 09:06:50;;;;;;;0.30;0.30;;;18.30;1.00;;;;;;5032089;28;20595;-77
2022/04/12 09:09:18;;;;;;;0.30;0.30;;;18.60;1.00;;;;;;5032809;28;20309;-77
2022/04/12 09:11:58;;;;;;;0.40;0.40;;;18.70;1.00;;;;;;5032769;28;20200;-77
2022/04/12 09:14:25;;;;;;;0.30;0.30;;;19.20;1.00;;;;;;5032989;28;20270;-76
2022/04/12 09:16:52;;;;;;;0.40;0.40;;;19.20;1.00;;;;;;5032813;28;20179;-77
2022/04/12 09:19:50;;;;;;;0.33;0.33;;;18.60;1.00;;;;;;5032475;28;20180;-76
2022/04/12 09:22:23;;;;;;;0.50;0.50;;;18.30;1.00;;;;;;5032410;28;20667;-77
2022/04/12 09:24:50;;;;;;;0.40;0.40;;;18.30;1.00;;;;;;5032915;28;20264;-77
2022/04/12 09:27:18;;;;;;;0.30;0.30;;;18.10;1.00;;;;;;5031867;28;20663;-76
2022/04/12 09:30:05;;;;;;;0.30;0.30;;;18.10;1.00;;;;;;5033034;28;20172;-77
2022/04/12 09:32:39;;;;;;;0.40;0.40;;;18.30;1.00;;;;;;5032402;28;20168;-76
2022/04/12 09:35:06;;;;;;;0.40;0.40;;;19.10;1.00;;;;;;5037719;28;20179;-76
2022/04/12 09:37:34;;;;;;;0.40;0.40;;;19.20;1.00;;;;;;5057759;28;20176;-75
2022/04/12 09:39:59;;;;;;;0.40;0.40;;;19.50;1.00;;;;;;5057287;28;20191;-75
2022/04/12 09:42:45;;;;;;;0.40;0.40;;;19.90;1.00;;;;;;5057571;28;20203;-75
2022/04/12 09:45:13;;;;;;;0.30;0.30;;;19.80;1.00;;;;;;5057670;28;20179;-75
2022/04/12 09:47:40;;;;;;;0.40;0.40;;;19.70;1.00;;;;;;5056469;28;20210;-75
2022/04/12 09:50:08;;;;;;;0.30;0.30;;;20.00;1.00;;;;;;5052015;28;20204;-76
2022/04/12 09:52:33;;;;;;;0.40;0.40;;;20.40;1.00;;;;;;5046968;28;20262;-75
2022/04/12 09:54:59;;;;;;;0.40;0.40;;;20.90;1.00;;;;;;5032571;28;20222;-76
2022/04/12 09:57:25;;;;;;;0.50;0.50;;;20.40;1.00;;;;;;5032150;28;20183;-75
2022/04/12 09:59:56;;;;;;;0.60;0.60;;;21.10;1.00;;;;;;5030567;28;20176;-76
2022/04/12 10:02:26;;;;;;;0.40;0.40;;;21.50;1.00;;;;;;5031540;28;20731;-76
2022/04/12 10:04:54;;;;;;;0.50;0.50;;;21.60;1.00;;;;;;5031566;28;20647;-76
2022/04/12 10:07:21;;;;;;;0.67;0.67;;;21.50;1.00;;;;;;5032378;28;20186;-75
2022/04/12 10:09:52;;;;;;;0.50;0.50;;;21.60;1.00;;;;;;5031189;28;20619;-76
2022/04/12 10:12:18;;;;;;;0.50;0.50;;;21.30;1.00;;;;;;5031540;28;20199;-75
2022/04/12 10:14:45;;;;;;;0.60;0.60;;;22.20;1.00;;;;;;5012092;28;20550;-76
2022/04/12 10:17:13;;;;;;;0.50;0.50;;;22.60;1.00;;;;;;5011594;28;20180;-76
2022/04/12 10:19:40;;;;;;;0.50;0.50;;;22.60;1.00;;;;;;5012131;28;20172;-76
2022/04/12 10:22:06;;;;;;;0.47;0.47;;;21.70;1.00;;;;;;5013704;28;20223;-76
2022/04/12 10:24:33;;;;;;;0.57;0.57;;;22.30;1.00;;;;;;5015723;28;20251;-76
2022/04/12 10:26:58;;;;;;;0.40;0.40;;;22.40;1.00;;;;;;5016356;28;20255;-76
2022/04/12 10:29:24;;;;;;;0.60;0.60;;;22.10;1.00;;;;;;5016177;28;20218;-77
2022/04/12 10:32:01;;;;;;;0.60;0.60;;;22.10;1.00;;;;;;5015710;28;20193;-76
2022/04/12 10:34:27;;;;;;;0.50;0.50;;;21.90;1.00;;;;;;5015714;28;20234;-77
2022/04/12 10:36:55;;;;;;;0.43;0.43;;;22.20;1.00;;;;;;5015553;28;20177;-76
2022/04/12 10:39:31;;;;;;;0.40;0.40;;;21.50;1.00;;;;;;5015455;28;20183;-76
2022/04/12 10:41:58;;;;;;;0.40;0.40;;;21.30;1.00;;;;;;5016400;28;20242;-76
2022/04/12 10:44:25;;;;;;;0.40;0.40;;;21.60;1.00;;;;;;5015569;28;20188;-75
2022/04/12 10:46:51;;;;;;;0.40;0.40;;;21.40;1.00;;;;;;5015450;28;20172;-76
2022/04/12 10:49:21;;;;;;;0.50;0.50;;;21.70;1.00;;;;;;5023505;28;20176;-75
2022/04/12 10:51:56;;;;;;;0.50;0.50;;;22.00;1.00;;;;;;5035084;28;20617;-75
2022/04/12 10:54:29;;;;;;;0.50;0.50;;;22.20;1.00;;;;;;5034434;28;20233;-76
2022/04/12 10:57:16;;;;;;;0.50;0.50;;;22.60;1.00;;;;;;5034122;28;20821;-75
2022/04/12 10:59:47;;;;;;;0.33;0.33;;;23.10;1.00;;;;;;5032020;28;20217;-76
2022/04/12 11:02:14;;;;;;;0.40;0.40;;;22.70;1.00;;;;;;5034628;28;20215;-75
2022/04/12 11:04:39;;;;;;;0.37;0.37;;;23.40;1.00;;;;;;5034762;28;20168;-75
2022/04/12 11:07:08;;;;;;;0.50;0.50;;;23.30;1.00;;;;;;5034920;28;20314;-75
2022/04/12 11:09:33;;;;;;;0.40;0.40;;;23.90;1.00;;;;;;5033988;28;20717;-75
2022/04/12 11:12:02;;;;;;;0.50;0.50;;;24.10;1.00;;;;;;5034418;28;20275;-76
2022/04/12 11:14:32;;;;;;;0.40;0.40;;;23.20;1.00;;;;;;5034456;28;20663;-75
2022/04/12 11:17:08;;;;;;;0.40;0.40;;;23.10;1.00;;;;;;5034484;28;20180;-75
2022/04/12 11:19:45;;;;;;;0.40;0.40;;;23.30;1.00;;;;;;5033998;28;20201;-76
2022/04/12 11:22:13;;;;;;;0.33;0.33;;;23.60;1.00;;;;;;5034317;28;20688;-75
2022/04/12 11:24:38;;;;;;;0.50;0.50;;;23.60;1.00;;;;;;5046956;23;20174;-81
2022/04/12 11:27:11;;;;;;;0.40;0.40;;;22.90;1.00;;;;;;5019194;28;20215;-80
2022/04/12 11:29:43;;;;;;;0.50;0.50;;;22.30;1.00;;;;;;5017646;28;20227;-82
2022/04/12 11:32:10;;;;;;;0.40;0.40;;;22.40;1.00;;;;;;4997237;28;20177;-80
2022/04/12 11:34:38;;;;;;;0.30;0.30;;;23.00;1.00;;;;;;4997087;28;20191;-81
2022/04/12 11:37:09;;;;;;;0.43;0.43;;;23.60;1.00;;;;;;4997814;28;20181;-81
2022/04/12 11:39:43;;;;;;;0.40;0.40;;;23.30;1.00;;;;;;4998488;28;20185;-79
2022/04/12 11:42:11;;;;;;;0.27;0.27;;;23.10;1.00;;;;;;4998026;28;20213;-80
2022/04/12 11:44:36;;;;;;;0.30;0.30;;;23.40;1.00;;;;;;4998274;28;20197;-79
2022/04/12 11:47:07;;;;;;;0.30;0.30;;;22.90;1.00;;;;;;4997954;28;20646;-78
2022/04/12 11:49:36;;;;;;;0.30;0.30;;;22.60;1.00;;;;;;4997106;28;20256;-78
2022/04/12 11:52:04;;;;;;;0.40;0.40;;;22.80;1.00;;;;;;4979828;28;20197;-78
2022/04/12 11:54:35;;;;;;;0.30;0.30;;;22.70;1.00;;;;;;4998080;28;20177;-78
2022/04/12 11:57:06;;;;;;;0.40;0.40;;;22.60;1.00;;;;;;4999996;28;20396;-79
2022/04/12 11:59:38;;;;;;;0.40;0.40;;;22.40;1.00;;;;;;4998470;28;20169;-79
2022/04/12 12:02:05;;;;;;;0.30;0.30;;;22.20;1.00;;;;;;4996920;28;20233;-77
2022/04/12 12:04:33;;;;;;;0.40;0.40;;;22.30;1.00;;;;;;4996111;28;20312;-78
2022/04/12 12:07:05;;;;;;;0.40;0.40;;;22.40;1.00;;;;;;4995682;28;20681;-78
2022/04/12 12:09:32;;;;;;;0.40;0.40;;;22.50;1.00;;;;;;4995878;28;20184;-77
2022/04/12 12:11:59;;;;;;;0.30;0.30;;;22.60;1.00;;;;;;4996362;28;20200;-78
2022/04/12 12:14:27;;;;;;;0.50;0.50;;;22.40;1.00;;;;;;4994959;28;20208;-78
2022/04/12 12:17:10;;;;;;;0.40;0.40;;;22.50;1.00;;;;;;4998371;28;20216;-77
2022/04/12 12:19:39;;;;;;;0.33;0.33;;;22.60;1.00;;;;;;5015838;28;20169;-80
2022/04/12 12:22:10;;;;;;;0.30;0.30;;;22.60;1.00;;;;;;5017779;28;20208;-79
2022/04/12 12:24:55;;;;;;;0.30;0.30;;;22.70;1.00;;;;;;5011323;28;20170;-79
2022/04/12 12:27:31;;;;;;;0.30;0.30;;;22.90;1.00;;;;;;5001247;28;20201;-78
2022/04/12 12:30:26;;;;;;;0.40;0.40;;;23.10;1.00;;;;;;4993144;28;20682;-77
2022/04/12 12:32:53;;;;;;;0.33;0.33;;;22.80;1.00;;;;;;4992605;28;20558;-75
2022/04/12 12:35:19;;;;;;;0.30;0.30;;;22.90;1.00;;;;;;4994058;28;20177;-73
2022/04/12 12:37:46;;;;;;;0.40;0.40;;;22.70;1.00;;;;;;4993566;28;20347;-75
2022/04/12 12:40:26;;;;;;;0.50;0.50;;;22.90;1.00;;;;;;4992684;28;20201;-75
2022/04/12 12:42:54;;;;;;;0.40;0.40;;;22.90;1.00;;;;;;4993480;28;20661;-77
2022/04/12 12:45:22;;;;;;;0.57;0.57;;;23.00;1.00;;;;;;4993922;28;20173;-76
2022/04/12 12:47:56;;;;;;;0.30;0.30;;;23.00;1.00;;;;;;4992977;28;20639;-76
2022/04/12 12:50:24;;;;;;;0.40;0.40;;;23.20;1.00;;;;;;4989467;28;20244;-75
2022/04/12 12:52:58;;;;;;;0.40;0.40;;;23.20;1.00;;;;;;4993437;28;20601;-76
2022/04/12 12:55:28;;;;;;;0.40;0.40;;;23.00;1.00;;;;;;4993334;28;20618;-76
2022/04/12 12:57:57;;;;;;;0.30;0.30;;;22.70;1.00;;;;;;4993210;28;20665;-76
2022/04/12 13:00:27;;;;;;;0.40;0.40;;;22.50;1.00;;;;;;4992534;28;20277;-75
2022/04/12 13:03:06;;;;;;;0.30;0.30;;;22.60;1.00;;;;;;4993914;28;20173;-80
2022/04/12 13:05:32;;;;;;;0.30;0.30;;;23.00;1.00;;;;;;5002886;28;20272;-79